Hovedside
METAR-TAF:

METAR-TAF

Lufthavner :

Xi'an, Kina

Xi'an Xianyang internasjonale lufthavn

breddegrad: 34-26N, lengdegrad: 108-45E, høyde over havet: 479 m

Gjeldene værobservasjon

Denne rapporten ble laget for 34 minutter siden, klokken 19:00 UTC
Vind 2 kt fra Vest
Temperatur -3°C
Luftfuktighet 93%
Trykk 1023 hPa
Sikt: 3500 m
dis

METAR: ZLXY 191900Z 28001MPS 3500 BR NSC M03/M04 Q1023 NOSIG

Tid: 03:34 (19:34 UTC)

Varsel

Denne rapporten ble laget for 4 timer og 23 minutter siden, klokken 15:11 UTC
Varsel gyldig fra 19. klokken 18 UTC til 20. klokken 18 UTC
Vind 6 kt fra Vest
Sikt: 3000 m
dis

TAF: ZLXY 191511Z 1918/2018 26003MPS 3000 BR NSC TX09/2007Z TNM03/23Z

Værobservasjoner og værvarsel for over 4000 flyplasser (METAR- og TAF-rapporter).

Tilgjengelige stasjoner er representert av de røde og gule prikkene på kartet.

Hold musepekeren over prikken for å se navnet på stasjonen.

Klikk så for å se værobservasjoner og -varsler.

For å forandre kartet kan du klikke på den grønne knappen med svart kryss for å zoome inn, på den grønne knappen med strek for å zoome ut, eller på de grønne pilene for å se tilstøtende kart.


METAR-TAF: